createdAt,value
2022-12-13T00:00:31.646Z,0.65
2022-12-13T00:02:58.566Z,0.68
2022-12-13T00:05:25.517Z,0.65
2022-12-13T00:07:52.554Z,0.68
2022-12-13T00:10:19.543Z,0.77
2022-12-13T00:12:46.663Z,0.52
2022-12-13T00:15:13.933Z,0.68
2022-12-13T00:17:41.738Z,0.68
2022-12-13T00:20:09.041Z,0.60
2022-12-13T00:22:35.921Z,0.62
2022-12-13T00:25:03.052Z,0.64
2022-12-13T00:27:29.939Z,0.45
2022-12-13T00:29:56.978Z,0.59
2022-12-13T00:32:24.002Z,0.42
2022-12-13T00:34:50.967Z,0.46
2022-12-13T00:37:17.867Z,0.37
2022-12-13T00:39:44.850Z,0.48
2022-12-13T00:42:11.751Z,0.44
2022-12-13T00:44:38.714Z,0.32
2022-12-13T00:47:05.728Z,0.40
2022-12-13T00:49:32.704Z,0.36
2022-12-13T00:52:00.310Z,0.35
2022-12-13T00:54:28.441Z,0.23
2022-12-13T00:56:55.448Z,0.46
2022-12-13T00:59:23.163Z,0.34
2022-12-13T01:01:50.137Z,0.43
2022-12-13T01:04:17.295Z,0.41
2022-12-13T01:06:45.496Z,0.43
2022-12-13T01:09:20.371Z,0.39
2022-12-13T01:11:47.453Z,0.36
2022-12-13T01:14:14.585Z,0.40
2022-12-13T01:16:41.662Z,0.32
2022-12-13T01:19:08.596Z,0.24
2022-12-13T01:21:35.700Z,0.15
2022-12-13T01:24:03.729Z,0.16
2022-12-13T01:26:30.740Z,0.32
2022-12-13T01:28:57.726Z,0.32
2022-12-13T01:31:24.862Z,0.03
2022-12-13T01:33:51.773Z,0.05
2022-12-13T01:36:27.771Z,0.10
2022-12-13T01:38:58.616Z,0.06
2022-12-13T01:41:27.268Z,0.01
2022-12-13T01:44:16.057Z,0.10
2022-12-13T01:46:43.022Z,0.02
2022-12-13T01:49:19.406Z,0.00
2022-12-13T01:51:50.369Z,0.09
2022-12-13T01:54:21.280Z,0.10
2022-12-13T01:57:00.815Z,0.18
2022-12-13T01:59:28.082Z,0.03
2022-12-13T02:01:54.995Z,-0.11
2022-12-13T02:04:44.293Z,-0.09
2022-12-13T02:07:23.276Z,0.05
2022-12-13T02:09:56.393Z,0.06
2022-12-13T02:12:25.519Z,-0.08
2022-12-13T02:14:57.958Z,-0.09
2022-12-13T02:17:29.822Z,0.05
2022-12-13T02:20:21.544Z,0.08
2022-12-13T02:23:08.240Z,-0.06
2022-12-13T02:26:06.017Z,0.10
2022-12-13T02:28:42.042Z,0.10
2022-12-13T02:31:14.609Z,-0.06
2022-12-13T02:33:58.709Z,0.11
2022-12-13T02:36:36.609Z,-0.03
2022-12-13T02:39:30.703Z,0.05
2022-12-13T02:42:06.116Z,-0.05
2022-12-13T02:44:40.101Z,-0.04
2022-12-13T02:47:12.754Z,0.06
2022-12-13T02:49:51.968Z,-0.03
2022-12-13T02:52:22.487Z,-0.04
2022-12-13T02:54:49.843Z,-0.09
2022-12-13T02:57:31.358Z,0.11
2022-12-13T02:59:59.811Z,0.00
2022-12-13T03:02:38.969Z,0.23
2022-12-13T03:05:28.601Z,0.18
2022-12-13T03:08:03.092Z,0.17
2022-12-13T03:10:34.021Z,0.25
2022-12-13T03:13:21.383Z,0.08
2022-12-13T03:15:55.934Z,0.27
2022-12-13T03:18:23.064Z,0.27
2022-12-13T03:20:57.287Z,0.29
2022-12-13T03:23:24.389Z,0.13
2022-12-13T03:25:53.035Z,0.16
2022-12-13T03:28:20.062Z,0.16
2022-12-13T03:30:47.016Z,0.12
2022-12-13T03:33:14.051Z,0.25
2022-12-13T03:35:45.126Z,0.18
2022-12-13T03:38:22.438Z,0.19
2022-12-13T03:40:52.262Z,0.15
2022-12-13T03:43:22.110Z,0.27
2022-12-13T03:45:51.204Z,0.35
2022-12-13T03:48:23.057Z,0.26
2022-12-13T03:50:51.456Z,0.15
2022-12-13T03:53:23.188Z,0.20
2022-12-13T03:56:00.982Z,0.32
2022-12-13T03:58:36.111Z,0.25
2022-12-13T04:01:08.759Z,0.31
2022-12-13T04:03:36.265Z,0.15
2022-12-13T04:06:03.810Z,0.37
2022-12-13T04:08:30.883Z,0.22
2022-12-13T04:10:57.808Z,0.12
2022-12-13T04:13:33.459Z,0.18
2022-12-13T04:16:01.581Z,0.30
2022-12-13T04:18:28.558Z,0.33
2022-12-13T04:20:55.513Z,0.25
2022-12-13T04:23:22.396Z,0.23
2022-12-13T04:25:49.308Z,0.22
2022-12-13T04:28:22.180Z,0.21
2022-12-13T04:30:53.725Z,0.20
2022-12-13T04:33:24.523Z,0.16
2022-12-13T04:35:51.675Z,0.12
2022-12-13T04:38:18.740Z,0.10
2022-12-13T04:40:45.958Z,0.18
2022-12-13T04:43:12.819Z,0.18
2022-12-13T04:45:39.863Z,0.35
2022-12-13T04:48:06.842Z,0.21
2022-12-13T04:50:34.117Z,0.29
2022-12-13T04:53:01.070Z,0.30
2022-12-13T04:55:28.016Z,0.19
2022-12-13T04:57:54.914Z,0.30
2022-12-13T05:00:23.391Z,0.21
2022-12-13T05:02:50.758Z,0.13
2022-12-13T05:05:18.252Z,0.34
2022-12-13T05:07:45.505Z,0.17
2022-12-13T05:10:13.952Z,0.18
2022-12-13T05:13:00.043Z,0.17
2022-12-13T05:15:27.853Z,0.16
2022-12-13T05:17:54.796Z,0.18
2022-12-13T05:20:21.653Z,0.26
2022-12-13T05:22:48.632Z,0.13
2022-12-13T05:25:15.677Z,0.22
2022-12-13T05:27:42.748Z,0.13
2022-12-13T05:30:10.331Z,0.14
2022-12-13T05:32:44.119Z,0.10
2022-12-13T05:35:12.850Z,0.15
2022-12-13T05:37:39.859Z,0.15
2022-12-13T05:40:07.638Z,0.14
2022-12-13T05:42:34.585Z,0.23
2022-12-13T05:45:01.490Z,0.09
2022-12-13T05:47:29.184Z,0.23
2022-12-13T05:49:56.110Z,0.27
2022-12-13T05:52:30.443Z,0.26
2022-12-13T05:55:01.045Z,0.10
2022-12-13T05:57:28.537Z,0.20
2022-12-13T05:59:55.787Z,0.09
2022-12-13T06:02:22.976Z,0.13
2022-12-13T06:04:50.035Z,0.22
2022-12-13T06:07:17.007Z,0.24
2022-12-13T06:09:44.103Z,0.23
2022-12-13T06:12:30.738Z,0.07
2022-12-13T06:15:01.340Z,0.16
2022-12-13T06:17:32.787Z,0.22
2022-12-13T06:20:00.117Z,0.05
2022-12-13T06:22:30.340Z,0.18
2022-12-13T06:24:57.422Z,0.18
2022-12-13T06:27:24.373Z,-0.02
2022-12-13T06:29:51.303Z,0.17
2022-12-13T06:32:20.446Z,0.16
2022-12-13T06:34:47.395Z,0.19
2022-12-13T06:37:19.062Z,0.14
2022-12-13T06:39:46.072Z,-0.01
2022-12-13T06:42:22.261Z,-0.02
2022-12-13T06:44:55.952Z,0.18
2022-12-13T06:47:30.948Z,0.03
2022-12-13T06:50:05.452Z,-0.11
2022-12-13T06:52:33.127Z,-0.08
2022-12-13T06:55:00.175Z,0.05
2022-12-13T06:57:27.201Z,0.06
2022-12-13T06:59:54.103Z,-0.03
2022-12-13T07:02:25.154Z,0.13
2022-12-13T07:04:53.465Z,0.12
2022-12-13T07:07:20.411Z,0.03
2022-12-13T07:09:47.406Z,0.13
2022-12-13T07:12:14.285Z,0.09
2022-12-13T07:14:41.540Z,0.08
2022-12-13T07:17:08.510Z,0.00
2022-12-13T07:19:36.073Z,-0.02
2022-12-13T07:22:06.152Z,0.19
2022-12-13T07:24:34.632Z,-0.01
2022-12-13T07:27:02.241Z,-0.04
2022-12-13T07:29:31.090Z,0.20
2022-12-13T07:32:01.575Z,0.05
2022-12-13T07:34:30.033Z,0.22
2022-12-13T07:36:56.932Z,0.18
2022-12-13T07:39:26.365Z,0.05
2022-12-13T07:41:55.429Z,0.03
2022-12-13T07:44:22.564Z,0.01
2022-12-13T07:46:49.541Z,0.06
2022-12-13T07:49:16.704Z,0.18
2022-12-13T07:51:43.588Z,0.10
2022-12-13T07:54:10.612Z,0.24
2022-12-13T07:56:37.510Z,0.14
2022-12-13T07:59:04.474Z,0.10
2022-12-13T08:01:34.919Z,0.08
2022-12-13T08:04:02.865Z,0.17
2022-12-13T08:06:30.915Z,0.11
2022-12-13T08:08:58.175Z,0.04
2022-12-13T08:11:25.191Z,0.09
2022-12-13T08:13:53.867Z,0.31
2022-12-13T08:16:25.963Z,0.30
2022-12-13T08:19:02.078Z,0.23
2022-12-13T08:21:55.699Z,0.25
2022-12-13T08:24:24.952Z,0.12
2022-12-13T08:26:54.690Z,0.21
2022-12-13T08:29:23.526Z,0.17
2022-12-13T08:32:07.044Z,0.30
2022-12-13T08:34:34.057Z,0.33
2022-12-13T08:37:03.162Z,0.39
2022-12-13T08:39:34.640Z,0.23
2022-12-13T08:42:21.032Z,0.17
2022-12-13T08:44:52.422Z,0.39
2022-12-13T08:47:23.015Z,0.42
2022-12-13T08:50:01.912Z,0.34
2022-12-13T08:52:39.206Z,0.30
2022-12-13T08:55:12.530Z,0.45
2022-12-13T08:57:39.907Z,0.38
2022-12-13T09:00:07.702Z,0.49
2022-12-13T09:02:37.863Z,0.37
2022-12-13T09:05:06.024Z,0.35
2022-12-13T09:07:33.029Z,0.46
2022-12-13T09:10:00.035Z,0.34
2022-12-13T09:12:47.047Z,0.36
2022-12-13T09:15:22.532Z,0.39
2022-12-13T09:17:52.208Z,0.56
2022-12-13T09:20:29.195Z,0.56
2022-12-13T09:23:01.950Z,0.41
2022-12-13T09:25:36.712Z,0.47
2022-12-13T09:28:08.415Z,0.61
2022-12-13T09:30:36.976Z,0.54
2022-12-13T09:33:28.662Z,0.52
2022-12-13T09:35:54.096Z,0.58
2022-12-13T09:38:21.054Z,0.51
2022-12-13T09:40:48.406Z,0.61
2022-12-13T09:43:31.298Z,0.55
2022-12-13T09:46:01.806Z,0.80
2022-12-13T09:48:34.538Z,0.78
2022-12-13T09:51:18.330Z,0.79
2022-12-13T09:53:50.934Z,0.87
2022-12-13T09:56:19.252Z,0.76
2022-12-13T09:58:49.491Z,0.78
2022-12-13T10:01:22.542Z,0.96
2022-12-13T10:03:53.378Z,1.13
2022-12-13T10:06:22.796Z,1.08
2022-12-13T10:08:50.951Z,1.27
2022-12-13T10:11:31.902Z,1.25
2022-12-13T10:14:05.862Z,1.43
2022-12-13T10:16:37.056Z,1.50
2022-12-13T10:19:29.505Z,1.45
2022-12-13T10:22:02.104Z,1.48
2022-12-13T10:24:36.876Z,1.59
2022-12-13T10:27:15.398Z,1.78
2022-12-13T10:30:17.564Z,1.92
2022-12-13T10:32:56.962Z,1.84
2022-12-13T10:35:28.027Z,2.02
2022-12-13T10:37:56.031Z,2.03
2022-12-13T10:40:33.740Z,2.07
2022-12-13T10:43:07.737Z,2.33
2022-12-13T10:45:34.942Z,2.15
2022-12-13T10:48:04.306Z,2.36
2022-12-13T10:50:31.619Z,2.25
2022-12-13T10:53:00.266Z,2.43
2022-12-13T10:55:33.926Z,2.65
2022-12-13T10:58:04.036Z,2.41
2022-12-13T11:00:38.755Z,2.63
2022-12-13T11:03:05.970Z,2.59
2022-12-13T11:05:34.511Z,2.74
2022-12-13T11:08:27.048Z,2.71
2022-12-13T11:11:04.056Z,2.85
2022-12-13T11:13:38.690Z,2.99
2022-12-13T11:16:22.261Z,2.98
2022-12-13T11:18:54.141Z,2.98
2022-12-13T11:21:32.597Z,3.08
2022-12-13T11:24:02.244Z,3.19
2022-12-13T11:26:29.843Z,3.07
2022-12-13T11:29:19.307Z,3.27
2022-12-13T11:32:00.852Z,3.20
2022-12-13T11:34:53.687Z,3.25
2022-12-13T11:37:28.905Z,3.44
2022-12-13T11:40:15.752Z,3.50
2022-12-13T11:42:50.230Z,3.47
2022-12-13T11:45:23.502Z,3.54
2022-12-13T11:48:04.960Z,3.66
2022-12-13T11:50:41.134Z,3.66
2022-12-13T11:53:30.716Z,3.75
2022-12-13T11:56:20.388Z,3.77
2022-12-13T11:59:26.074Z,3.75
2022-12-13T12:02:16.891Z,3.81
2022-12-13T12:04:49.091Z,3.87
2022-12-13T12:07:32.513Z,3.98
2022-12-13T12:10:15.387Z,4.01
2022-12-13T12:12:44.513Z,3.84
2022-12-13T12:15:26.371Z,4.13
2022-12-13T12:17:57.769Z,4.12
2022-12-13T12:21:00.554Z,4.06
2022-12-13T12:23:55.875Z,4.13
2022-12-13T12:26:30.897Z,3.98
2022-12-13T12:29:36.008Z,4.23
2022-12-13T12:32:16.587Z,4.25
2022-12-13T12:35:05.079Z,4.33
2022-12-13T12:37:44.966Z,4.39
2022-12-13T12:40:17.971Z,4.45
2022-12-13T12:43:15.264Z,4.47
2022-12-13T12:45:56.337Z,4.49
2022-12-13T12:49:01.882Z,4.56
2022-12-13T12:51:29.503Z,4.59
2022-12-13T12:54:03.588Z,4.65
2022-12-13T12:56:43.035Z,4.47
2022-12-13T12:59:21.686Z,4.64
2022-12-13T13:02:10.076Z,4.62
2022-12-13T13:04:42.461Z,4.61
2022-12-13T13:07:39.670Z,4.71
2022-12-13T13:10:16.381Z,4.62
2022-12-13T13:12:53.585Z,4.54
2022-12-13T13:15:38.972Z,4.80
2022-12-13T13:18:28.128Z,4.81
2022-12-13T13:21:23.331Z,4.69
2022-12-13T13:24:06.963Z,4.67
2022-12-13T13:26:36.736Z,4.64
2022-12-13T13:29:29.046Z,4.56
2022-12-13T13:32:01.128Z,4.65
2022-12-13T13:34:31.040Z,4.49
2022-12-13T13:36:58.871Z,4.50
2022-12-13T13:39:28.846Z,4.63
2022-12-13T13:42:02.380Z,4.50
2022-12-13T13:45:00.488Z,4.47
2022-12-13T13:47:27.386Z,4.44
2022-12-13T13:50:12.267Z,4.36
2022-12-13T13:52:42.076Z,4.35
2022-12-13T13:55:37.356Z,4.18
2022-12-13T13:58:41.841Z,4.22
2022-12-13T14:01:26.399Z,4.14
2022-12-13T14:04:38.065Z,4.09
2022-12-13T14:07:26.976Z,3.97
2022-12-13T14:09:57.084Z,3.95
2022-12-13T14:12:23.923Z,3.85
2022-12-13T14:15:21.339Z,3.83
2022-12-13T14:17:54.351Z,3.75
2022-12-13T14:20:43.158Z,3.65
2022-12-13T14:23:26.000Z,3.45
2022-12-13T14:26:14.711Z,3.55
2022-12-13T14:28:56.389Z,3.35
2022-12-13T14:31:43.041Z,3.21
2022-12-13T14:34:27.258Z,3.09
2022-12-13T14:36:58.258Z,3.05
2022-12-13T14:39:26.222Z,3.01
2022-12-13T14:41:58.521Z,2.99
2022-12-13T14:44:30.353Z,3.04
2022-12-13T14:47:05.643Z,2.88
2022-12-13T14:49:38.459Z,2.77
2022-12-13T14:52:26.568Z,2.80
2022-12-13T14:54:59.695Z,2.57
2022-12-13T14:57:31.031Z,2.68
2022-12-13T14:59:59.224Z,2.60
2022-12-13T15:02:32.888Z,2.39
2022-12-13T15:05:00.450Z,2.30
2022-12-13T15:07:30.619Z,2.36
2022-12-13T15:10:02.246Z,2.27
2022-12-13T15:12:30.113Z,2.15
2022-12-13T15:15:02.061Z,2.22
2022-12-13T15:17:34.058Z,2.13
2022-12-13T15:20:20.481Z,2.09
2022-12-13T15:22:47.935Z,1.95
2022-12-13T15:25:15.637Z,2.00
2022-12-13T15:27:48.396Z,1.83
2022-12-13T15:30:15.741Z,1.83
2022-12-13T15:33:04.706Z,1.77
2022-12-13T15:35:31.844Z,1.73
2022-12-13T15:38:00.854Z,1.63
2022-12-13T15:40:27.830Z,1.74
2022-12-13T15:42:54.777Z,1.67
2022-12-13T15:45:24.619Z,1.69
2022-12-13T15:47:54.928Z,1.51
2022-12-13T15:50:38.494Z,1.55
2022-12-13T15:53:26.625Z,1.34
2022-12-13T15:55:53.960Z,1.35
2022-12-13T15:58:30.464Z,1.40
2022-12-13T16:00:58.506Z,1.34
2022-12-13T16:03:26.017Z,1.15
2022-12-13T16:05:55.049Z,1.21
2022-12-13T16:08:32.427Z,1.24
2022-12-13T16:10:59.469Z,1.30
2022-12-13T16:13:31.817Z,1.09
2022-12-13T16:16:09.293Z,1.02
2022-12-13T16:18:55.115Z,1.00
2022-12-13T16:21:22.081Z,1.13
2022-12-13T16:23:49.261Z,1.12
2022-12-13T16:26:23.668Z,0.87
2022-12-13T16:28:50.731Z,0.99
2022-12-13T16:31:18.997Z,1.01
2022-12-13T16:33:46.066Z,0.94
2022-12-13T16:36:13.086Z,0.86
2022-12-13T16:38:40.107Z,0.80
2022-12-13T16:41:08.377Z,0.67
2022-12-13T16:43:39.017Z,0.74
2022-12-13T16:47:16.775Z,0.57
2022-12-13T16:48:53.769Z,0.54
2022-12-13T16:51:21.109Z,0.49
2022-12-13T16:53:48.114Z,0.52
2022-12-13T16:56:16.666Z,0.50
2022-12-13T16:58:49.726Z,0.62
2022-12-13T17:01:19.841Z,0.36
2022-12-13T17:03:46.898Z,0.35
2022-12-13T17:06:13.847Z,0.48
2022-12-13T17:08:41.356Z,0.39
2022-12-13T17:11:14.581Z,0.31
2022-12-13T17:13:47.085Z,0.25
2022-12-13T17:16:14.298Z,0.30
2022-12-13T17:18:41.369Z,0.16
2022-12-13T17:21:09.272Z,0.12
2022-12-13T17:23:36.285Z,0.15
2022-12-13T17:26:10.482Z,0.24
2022-12-13T17:28:37.719Z,0.15
2022-12-13T17:31:09.221Z,0.03
2022-12-13T17:33:36.575Z,-0.10
2022-12-13T17:36:04.493Z,-0.01
2022-12-13T17:38:31.510Z,-0.10
2022-12-13T17:40:58.504Z,0.01
2022-12-13T17:43:34.380Z,-0.17
2022-12-13T17:46:03.461Z,-0.05
2022-12-13T17:48:37.271Z,-0.12
2022-12-13T17:51:07.637Z,-0.24
2022-12-13T17:53:34.559Z,-0.39
2022-12-13T17:56:03.929Z,-0.24
2022-12-13T17:58:32.375Z,-0.37
2022-12-13T18:00:59.907Z,-0.24
2022-12-13T18:03:27.176Z,-0.48
2022-12-13T18:05:59.350Z,-0.57
2022-12-13T18:08:26.866Z,-0.51
2022-12-13T18:11:23.852Z,-0.58
2022-12-13T18:13:45.231Z,-0.49
2022-12-13T18:16:13.975Z,-0.72
2022-12-13T18:18:41.043Z,-0.65
2022-12-13T18:21:18.151Z,-0.52
2022-12-13T18:23:45.447Z,-0.60
2022-12-13T18:26:22.480Z,-0.81
2022-12-13T18:28:49.406Z,-0.86
2022-12-13T18:31:18.836Z,-0.95
2022-12-13T18:33:47.892Z,-0.81
2022-12-13T18:36:16.474Z,-0.73
2022-12-13T18:38:43.438Z,-0.83
2022-12-13T18:41:14.070Z,-0.99
2022-12-13T18:43:44.231Z,-1.03
2022-12-13T18:46:11.805Z,-0.89
2022-12-13T18:48:38.827Z,-0.99
2022-12-13T18:51:07.816Z,-0.99
2022-12-13T18:53:34.984Z,-1.10
2022-12-13T18:56:02.919Z,-1.03
2022-12-13T18:58:29.844Z,-0.99
2022-12-13T19:00:57.538Z,-1.19
2022-12-13T19:03:25.733Z,-1.03
2022-12-13T19:05:53.222Z,-1.23
2022-12-13T19:08:20.111Z,-1.11
2022-12-13T19:10:48.067Z,-1.36
2022-12-13T19:13:14.994Z,-1.10
2022-12-13T19:15:42.049Z,-1.15
2022-12-13T19:18:09.146Z,-1.20
2022-12-13T19:20:36.210Z,-1.39
2022-12-13T19:23:03.130Z,-1.21
2022-12-13T19:25:30.803Z,-1.25
2022-12-13T19:27:57.733Z,-1.48
2022-12-13T19:30:24.708Z,-1.34
2022-12-13T19:32:51.880Z,-1.37
2022-12-13T19:35:19.804Z,-1.35
2022-12-13T19:37:46.749Z,-1.54
2022-12-13T19:40:13.737Z,-1.61
2022-12-13T19:42:40.627Z,-1.63
2022-12-13T19:45:09.352Z,-1.43
2022-12-13T19:47:36.300Z,-1.50
2022-12-13T19:50:03.444Z,-1.64
2022-12-13T19:52:30.345Z,-1.63
2022-12-13T19:54:57.544Z,-1.68
2022-12-13T19:57:24.419Z,-1.77
2022-12-13T19:59:51.403Z,-1.70
2022-12-13T20:02:18.375Z,-1.84
2022-12-13T20:04:45.400Z,-1.92
2022-12-13T20:07:12.419Z,-1.74
2022-12-13T20:09:40.063Z,-1.84
2022-12-13T20:12:07.033Z,-2.03
2022-12-13T20:14:34.100Z,-1.94
2022-12-13T20:17:01.120Z,-1.85
2022-12-13T20:19:28.115Z,-1.97
2022-12-13T20:21:57.032Z,-1.83
2022-12-13T20:24:24.285Z,-1.98
2022-12-13T20:26:51.208Z,-2.11
2022-12-13T20:29:18.762Z,-2.00
2022-12-13T20:31:48.670Z,-2.08
2022-12-13T20:34:16.268Z,-2.00
2022-12-13T20:36:43.256Z,-2.13
2022-12-13T20:39:11.601Z,-1.93
2022-12-13T20:41:38.512Z,-2.10
2022-12-13T20:44:07.046Z,-1.98
2022-12-13T20:46:36.705Z,-1.99
2022-12-13T20:49:04.609Z,-2.28
2022-12-13T20:51:32.306Z,-2.10
2022-12-13T20:53:59.343Z,-2.25
2022-12-13T20:56:28.138Z,-2.13
2022-12-13T20:58:55.240Z,-2.21
2022-12-13T21:01:32.601Z,-2.42
2022-12-13T21:04:00.606Z,-2.25
2022-12-13T21:06:28.319Z,-2.19
2022-12-13T21:08:56.756Z,-2.35
2022-12-13T21:11:25.824Z,-2.49
2022-12-13T21:14:25.647Z,-2.27
2022-12-13T21:16:54.300Z,-2.35
2022-12-13T21:19:30.961Z,-2.42
2022-12-13T21:22:01.556Z,-2.50
2022-12-13T21:24:29.706Z,-2.33
2022-12-13T21:26:56.738Z,-2.32
2022-12-13T21:29:23.762Z,-2.35
2022-12-13T21:31:50.834Z,-2.49
2022-12-13T21:34:18.310Z,-2.36
2022-12-13T21:36:46.779Z,-2.43
2022-12-13T21:39:15.661Z,-2.60
2022-12-13T21:41:42.785Z,-2.68
2022-12-13T21:44:14.177Z,-2.51
2022-12-13T21:47:10.812Z,-2.46
2022-12-13T21:49:29.141Z,-2.56
2022-12-13T21:51:56.089Z,-2.72
2022-12-13T21:54:23.043Z,-2.52
2022-12-13T21:57:08.318Z,-2.57
2022-12-13T21:59:35.392Z,-2.82
2022-12-13T22:02:13.668Z,-2.76
2022-12-13T22:04:41.364Z,-2.62
2022-12-13T22:07:08.644Z,-2.73
2022-12-13T22:09:36.169Z,-2.82
2022-12-13T22:12:07.000Z,-2.83
2022-12-13T22:14:34.025Z,-2.88
2022-12-13T22:17:01.639Z,-2.89
2022-12-13T22:19:28.654Z,-2.79
2022-12-13T22:21:55.606Z,-2.95
2022-12-13T22:24:22.582Z,-2.90
2022-12-13T22:26:49.450Z,-2.82
2022-12-13T22:29:16.724Z,-3.01
2022-12-13T22:31:43.791Z,-3.01
2022-12-13T22:34:15.960Z,-2.99
2022-12-13T22:36:42.898Z,-3.00
2022-12-13T22:39:16.386Z,-3.07
2022-12-13T22:41:43.523Z,-3.03
2022-12-13T22:44:11.493Z,-2.86
2022-12-13T22:46:38.491Z,-2.91
2022-12-13T22:49:05.702Z,-2.98
2022-12-13T22:51:32.646Z,-2.92
2022-12-13T22:53:59.517Z,-3.11
2022-12-13T22:56:26.650Z,-3.13
2022-12-13T22:58:54.564Z,-3.05
2022-12-13T23:01:23.445Z,-3.15
2022-12-13T23:03:50.641Z,-3.17
2022-12-13T23:06:22.087Z,-3.24
2022-12-13T23:08:57.173Z,-3.13
2022-12-13T23:11:42.575Z,-3.26
2022-12-13T23:14:12.244Z,-3.27
2022-12-13T23:16:39.231Z,-3.10
2022-12-13T23:19:39.898Z,-3.28
2022-12-13T23:21:55.256Z,-3.14
2022-12-13T23:24:22.333Z,-3.33
2022-12-13T23:26:49.422Z,-3.24
2022-12-13T23:29:16.330Z,-3.22
2022-12-13T23:31:49.102Z,-3.28
2022-12-13T23:34:16.372Z,-3.42
2022-12-13T23:36:43.280Z,-3.23
2022-12-13T23:39:10.828Z,-3.55
2022-12-13T23:41:37.792Z,-3.46
2022-12-13T23:44:05.088Z,-3.30
2022-12-13T23:46:33.746Z,-3.42
2022-12-13T23:49:01.298Z,-3.32
2022-12-13T23:51:28.555Z,-3.37
2022-12-13T23:53:55.518Z,-3.32
2022-12-13T23:56:22.649Z,-3.54
2022-12-13T23:58:49.798Z,-3.61
